Midnight Dream — 3EKF5 — position and weather

sailwx.info

Track history (hours):
 
Tides and Currents Weather Stations Pressure Air Temp Water Temp Dewpoint Dewpoint Depression Visibility Wind Speed Wind Dir Waves Ship Positions

Midnight Dream

Last reported at 2016-Jun-30 22:17 UTC. Time now 2016-Jun-30 23:10 UTC.
Position N 17°59' W 066°46'.

Length 90 m; draft 4.5 m.

Type: Cargo ship. MMSI: 372708000.

Date/timePositionNaut miles runAvg speedWind from/ knotsBaromVisibWave heightAir tempDewpointWater temp
2016-Jun-30 22:17N 17°59' W 066°46'0 0.0
2016-Jun-30 21:29N 17°59' W 066°46'0 0.0
2016-Jun-30 19:23N 17°59' W 066°46'0 0.0
2016-Jun-30 18:29N 17°59' W 066°46'0 0.0
2016-Jun-30 17:17N 17°59' W 066°46'0 0.0
2016-Jun-30 16:29N 17°59' W 066°46'0 0.0
2016-Jun-30 15:29N 17°59' W 066°46'0 0.0
2016-Jun-30 14:29N 17°59' W 066°46'0 0.0
2016-Jun-30 13:29N 17°59' W 066°46'0 0.0
2016-Jun-30 12:29N 17°59' W 066°46'3 3.3
2016-Jun-30 11:33N 17°56' W 066°44'1110.9
2016-Jun-30 10:33N 17°50' W 066°35'1010.3
2016-Jun-30 09:33N 17°49' W 066°24'1010.2
2016-Jun-30 08:33N 17°51' W 066°14'235 7.5
2016-Jun-29 01:27N 16°49' W 062°17'4 1.7
2016-Jun-28 23:05N 16°48' W 062°12'1 0.9
2016-Jun-28 22:31N 16°49' W 062°13'1111.3
2016-Jun-28 21:34N 16°57' W 062°06'1111.2
2016-Jun-28 20:34N 17°05' W 061°57'6 6.4
2016-Jun-28 19:32N 17°07' W 061°51'0 0.0
2016-Jun-28 18:32N 17°07' W 061°51'0 0.0
2016-Jun-28 17:32N 17°07' W 061°51'0 0.0
2016-Jun-28 16:32N 17°07' W 061°51'0 0.0
2016-Jun-28 15:32N 17°07' W 061°51'0 0.0
2016-Jun-28 14:32N 17°07' W 061°51'0 0.0
2016-Jun-28 13:32N 17°07' W 061°51'0 0.0
2016-Jun-28 12:32N 17°07' W 061°51'0 0.0
2016-Jun-28 11:32N 17°07' W 061°51'3 2.8
2016-Jun-28 10:31N 17°09' W 061°54'0 0.0
2016-Jun-28 09:31N 17°09' W 061°54'0 0.0
2016-Jun-28 08:31N 17°09' W 061°54'0 0.0
2016-Jun-28 07:31N 17°09' W 061°54'0 0.0
2016-Jun-28 06:31N 17°09' W 061°54'0 0.0
2016-Jun-28 04:31N 17°09' W 061°54'0 0.0
2016-Jun-28 03:31N 17°09' W 061°54'0 0.0
2016-Jun-28 02:31N 17°09' W 061°54'0 0.0
2016-Jun-28 01:31N 17°09' W 061°54'0 0.0
2016-Jun-28 00:33N 17°09' W 061°54'9 8.7
2016-Jun-27 23:34N 17°12' W 062°02'1010.3
2016-Jun-27 22:34N 17°16' W 062°12'15710.2
2016-Jun-27 07:13N 18°14' W 064°46'710.5
2016-Jun-27 06:33N 18°17' W 064°52'2 0.1
2016-Jun-26 10:09N 18°18' W 064°54'710.4
2016-Jun-26 09:29N 18°17' W 064°47'9 9.8
2016-Jun-26 08:33N 18°20' W 064°38'  
2016-Jun-23 14:10N 18°25' W 064°36'1 1.3
2016-Jun-23 13:30N 18°24' W 064°36'0 0.0
2016-Jun-23 12:30N 18°24' W 064°36'0 0.0
2016-Jun-23 11:33N 18°24' W 064°36'0 0.0
2016-Jun-23 10:33N 18°24' W 064°36'0 0.0
2016-Jun-23 08:34N 18°24' W 064°36'77 9.4
2016-Jun-23 00:24N 17°51' W 063°22'9 9.6
2016-Jun-22 23:26N 17°47' W 063°13'15 0.3
2016-Jun-21 00:33N 17°43' W 062°59'1413.0
2016-Jun-20 23:30N 17°55' W 063°05'1111.9
2016-Jun-20 22:33N 18°05' W 063°10'  
Track history (hours):
 
Tides and Currents Weather Stations Pressure Air Temp Water Temp Dewpoint Dewpoint Depression Visibility Wind Speed Wind Dir Waves Ship Positions

Midnight Dream

Last reported at 2016-Jun-30 22:17 UTC. Time now 2016-Jun-30 23:10 UTC.
Position N 17°59' W 066°46'.

Length 90 m; draft 4.5 m.

Type: Cargo ship. MMSI: 372708000.

Date/timePositionNaut miles runAvg speedWind from/ knotsBaromVisibWave heightAir tempDewpointWater temp
2016-Jun-30 22:17N 17°59' W 066°46'0 0.0
2016-Jun-30 21:29N 17°59' W 066°46'0 0.0
2016-Jun-30 19:23N 17°59' W 066°46'0 0.0
2016-Jun-30 18:29N 17°59' W 066°46'0 0.0
2016-Jun-30 17:17N 17°59' W 066°46'0 0.0
2016-Jun-30 16:29N 17°59' W 066°46'0 0.0
2016-Jun-30 15:29N 17°59' W 066°46'0 0.0
2016-Jun-30 14:29N 17°59' W 066°46'0 0.0
2016-Jun-30 13:29N 17°59' W 066°46'0 0.0
2016-Jun-30 12:29N 17°59' W 066°46'3 3.3
2016-Jun-30 11:33N 17°56' W 066°44'1110.9
2016-Jun-30 10:33N 17°50' W 066°35'1010.3
2016-Jun-30 09:33N 17°49' W 066°24'1010.2
2016-Jun-30 08:33N 17°51' W 066°14'235 7.5
2016-Jun-29 01:27N 16°49' W 062°17'4 1.7
2016-Jun-28 23:05N 16°48' W 062°12'1 0.9
2016-Jun-28 22:31N 16°49' W 062°13'1111.3
2016-Jun-28 21:34N 16°57' W 062°06'1111.2
2016-Jun-28 20:34N 17°05' W 061°57'6 6.4
2016-Jun-28 19:32N 17°07' W 061°51'0 0.0
2016-Jun-28 18:32N 17°07' W 061°51'0 0.0
2016-Jun-28 17:32N 17°07' W 061°51'0 0.0
2016-Jun-28 16:32N 17°07' W 061°51'0 0.0
2016-Jun-28 15:32N 17°07' W 061°51'0 0.0
2016-Jun-28 14:32N 17°07' W 061°51'0 0.0
2016-Jun-28 13:32N 17°07' W 061°51'0 0.0
2016-Jun-28 12:32N 17°07' W 061°51'0 0.0
2016-Jun-28 11:32N 17°07' W 061°51'3 2.8
2016-Jun-28 10:31N 17°09' W 061°54'0 0.0
2016-Jun-28 09:31N 17°09' W 061°54'0 0.0
2016-Jun-28 08:31N 17°09' W 061°54'0 0.0
2016-Jun-28 07:31N 17°09' W 061°54'0 0.0
2016-Jun-28 06:31N 17°09' W 061°54'0 0.0
2016-Jun-28 04:31N 17°09' W 061°54'0 0.0
2016-Jun-28 03:31N 17°09' W 061°54'0 0.0
2016-Jun-28 02:31N 17°09' W 061°54'0 0.0
2016-Jun-28 01:31N 17°09' W 061°54'0 0.0
2016-Jun-28 00:33N 17°09' W 061°54'9 8.7
2016-Jun-27 23:34N 17°12' W 062°02'1010.3
2016-Jun-27 22:34N 17°16' W 062°12'15710.2
2016-Jun-27 07:13N 18°14' W 064°46'710.5
2016-Jun-27 06:33N 18°17' W 064°52'2 0.1
2016-Jun-26 10:09N 18°18' W 064°54'710.4
2016-Jun-26 09:29N 18°17' W 064°47'9 9.8
2016-Jun-26 08:33N 18°20' W 064°38'  
2016-Jun-23 14:10N 18°25' W 064°36'1 1.3
2016-Jun-23 13:30N 18°24' W 064°36'0 0.0
2016-Jun-23 12:30N 18°24' W 064°36'0 0.0
2016-Jun-23 11:33N 18°24' W 064°36'0 0.0
2016-Jun-23 10:33N 18°24' W 064°36'0 0.0
2016-Jun-23 08:34N 18°24' W 064°36'77 9.4
2016-Jun-23 00:24N 17°51' W 063°22'9 9.6
2016-Jun-22 23:26N 17°47' W 063°13'15 0.3
2016-Jun-21 00:33N 17°43' W 062°59'1413.0
2016-Jun-20 23:30N 17°55' W 063°05'1111.9
2016-Jun-20 22:33N 18°05' W 063°10'  

Dump ship's entire track history